createdAt,value
2023-04-18T00:00:40.257Z,5.08
2023-04-18T00:01:40.277Z,5.07
2023-04-18T00:02:40.462Z,5.09
2023-04-18T00:03:40.453Z,5.08
2023-04-18T00:04:40.338Z,5.07
2023-04-18T00:05:40.304Z,5.10
2023-04-18T00:06:40.293Z,5.11
2023-04-18T00:07:40.298Z,5.12
2023-04-18T00:08:40.319Z,5.13
2023-04-18T00:09:40.345Z,5.14
2023-04-18T00:10:40.318Z,5.14
2023-04-18T00:11:40.322Z,5.17
2023-04-18T00:12:40.328Z,5.16
2023-04-18T00:13:40.335Z,5.14
2023-04-18T00:14:40.341Z,5.16
2023-04-18T00:15:40.347Z,5.14
2023-04-18T00:33:40.647Z,4.82
2023-04-18T00:34:40.471Z,4.80
2023-04-18T00:35:40.478Z,4.75
2023-04-18T00:36:40.484Z,4.70
2023-04-18T00:37:40.493Z,4.69
2023-04-18T00:38:40.501Z,4.68
2023-04-18T00:39:40.515Z,4.65
2023-04-18T00:40:40.517Z,4.61
2023-04-18T00:41:40.537Z,4.57
2023-04-18T00:42:40.536Z,4.56
2023-04-18T00:43:40.545Z,4.52
2023-04-18T00:44:40.553Z,4.50
2023-04-18T00:45:40.567Z,4.49
2023-04-18T00:46:40.606Z,4.44
2023-04-18T00:47:40.594Z,4.42
2023-04-18T00:48:40.590Z,4.36
2023-04-18T00:49:40.596Z,4.33
2023-04-18T00:50:40.625Z,4.32
2023-04-18T00:51:40.615Z,4.31
2023-04-18T00:52:40.623Z,4.31
2023-04-18T00:53:40.627Z,4.27
2023-04-18T00:54:40.636Z,4.25
2023-04-18T00:55:40.657Z,4.20
2023-04-18T00:56:40.647Z,4.21
2023-04-18T00:57:40.658Z,4.22
2023-04-18T00:58:40.665Z,4.19
2023-04-18T00:59:40.679Z,4.15
2023-04-18T01:00:40.680Z,4.12
2023-04-18T01:01:40.696Z,4.12
2023-04-18T01:02:40.838Z,4.10
2023-04-18T01:03:40.776Z,4.07
2023-04-18T01:04:40.762Z,4.05
2023-04-18T01:05:40.709Z,4.03
2023-04-18T01:06:40.718Z,4.00
2023-04-18T01:07:40.730Z,3.98
2023-04-18T01:08:40.728Z,3.96
2023-04-18T01:09:40.735Z,3.93
2023-04-18T01:10:40.740Z,3.92
2023-04-18T01:11:40.747Z,3.91
2023-04-18T01:12:40.760Z,3.91
2023-04-18T01:13:40.760Z,3.92
2023-04-18T01:14:40.762Z,3.87
2023-04-18T01:15:40.790Z,3.87
2023-04-18T01:16:40.777Z,3.86
2023-04-18T01:17:40.818Z,3.85
2023-04-18T01:18:40.799Z,3.83
2023-04-18T01:19:40.801Z,3.82
2023-04-18T01:20:40.812Z,3.80
2023-04-18T01:21:40.817Z,3.78
2023-04-18T01:22:40.818Z,3.74
2023-04-18T01:23:40.824Z,3.75
2023-04-18T01:24:40.844Z,3.75
2023-04-18T01:25:40.836Z,3.72
2023-04-18T01:26:40.845Z,3.69
2023-04-18T01:27:40.860Z,3.70
2023-04-18T01:28:40.855Z,3.71
2023-04-18T01:29:40.858Z,3.70
2023-04-18T01:30:40.866Z,3.68
2023-04-18T01:31:40.908Z,3.66
2023-04-18T01:32:40.926Z,3.65
2023-04-18T01:33:40.884Z,3.64
2023-04-18T01:34:40.890Z,3.62
2023-04-18T01:35:40.899Z,3.63
2023-04-18T01:36:40.910Z,3.61
2023-04-18T01:37:40.906Z,3.59
2023-04-18T01:38:40.912Z,3.58
2023-04-18T01:39:40.924Z,3.56
2023-04-18T01:40:40.930Z,3.53
2023-04-18T01:41:40.943Z,3.54
2023-04-18T01:42:40.953Z,3.55
2023-04-18T01:43:40.965Z,3.54
2023-04-18T01:44:40.965Z,3.55
2023-04-18T01:45:40.982Z,3.53
2023-04-18T01:46:41.049Z,3.50
2023-04-18T01:47:41.017Z,3.46
2023-04-18T01:48:40.992Z,3.42
2023-04-18T01:49:41.002Z,3.42
2023-04-18T01:50:41.007Z,3.42
2023-04-18T01:51:41.016Z,3.42
2023-04-18T01:52:41.021Z,3.37
2023-04-18T01:53:41.028Z,3.35
2023-04-18T01:54:41.033Z,3.36
2023-04-18T01:55:41.039Z,3.37
2023-04-18T01:56:41.046Z,3.35
2023-04-18T01:57:41.059Z,3.34
2023-04-18T01:58:41.064Z,3.35
2023-04-18T01:59:41.061Z,3.34
2023-04-18T02:00:41.084Z,3.32
2023-04-18T02:01:41.092Z,3.30
2023-04-18T02:02:41.196Z,3.27
2023-04-18T02:03:41.290Z,3.28
2023-04-18T02:04:41.096Z,3.27
2023-04-18T02:05:41.104Z,3.29
2023-04-18T02:06:41.118Z,3.27
2023-04-18T02:07:41.159Z,3.26
2023-04-18T02:08:41.132Z,3.27
2023-04-18T02:09:41.136Z,3.27
2023-04-18T02:10:41.146Z,3.26
2023-04-18T02:11:41.152Z,3.26
2023-04-18T02:12:41.160Z,3.24
2023-04-18T02:13:41.176Z,3.23
2023-04-18T02:14:41.178Z,3.22
2023-04-18T02:15:41.186Z,3.24
2023-04-18T02:16:41.229Z,3.20
2023-04-18T02:17:41.235Z,3.20
2023-04-18T02:18:41.211Z,3.18
2023-04-18T02:19:41.232Z,3.18
2023-04-18T02:20:41.230Z,3.20
2023-04-18T02:21:41.238Z,3.19
2023-04-18T02:22:41.257Z,3.19
2023-04-18T02:23:41.250Z,3.19
2023-04-18T02:24:41.268Z,3.21
2023-04-18T02:25:41.265Z,3.28
2023-04-18T02:26:41.276Z,3.26
2023-04-18T02:27:41.278Z,3.26
2023-04-18T02:28:41.296Z,3.26
2023-04-18T02:29:41.303Z,3.26
2023-04-18T02:30:41.305Z,3.26
2023-04-18T02:31:41.380Z,3.26
2023-04-18T02:32:41.360Z,3.22
2023-04-18T02:33:41.322Z,3.22
2023-04-18T02:34:41.335Z,3.21
2023-04-18T02:35:41.335Z,3.20
2023-04-18T02:36:41.341Z,3.17
2023-04-18T02:37:41.348Z,3.17
2023-04-18T02:38:41.357Z,3.14
2023-04-18T02:39:41.363Z,3.10
2023-04-18T02:40:41.371Z,3.10
2023-04-18T02:41:41.376Z,3.10
2023-04-18T02:42:41.382Z,3.09
2023-04-18T02:43:41.391Z,3.08
2023-04-18T02:44:41.404Z,3.09
2023-04-18T02:45:41.511Z,3.11
2023-04-18T02:46:41.411Z,3.12
2023-04-18T02:47:51.578Z,3.12
2023-04-18T02:48:41.422Z,3.15
2023-04-18T02:49:41.430Z,3.14
2023-04-18T02:50:41.436Z,3.13
2023-04-18T02:51:41.443Z,3.11
2023-04-18T02:52:41.457Z,3.10
2023-04-18T02:53:41.462Z,3.09
2023-04-18T02:54:41.458Z,3.10
2023-04-18T02:55:41.479Z,3.09
2023-04-18T02:56:41.476Z,3.05
2023-04-18T02:57:41.484Z,3.04
2023-04-18T02:58:41.491Z,3.03
2023-04-18T02:59:41.496Z,3.03
2023-04-18T03:00:41.507Z,3.05
2023-04-18T03:01:41.608Z,3.02
2023-04-18T03:02:41.607Z,3.01
2023-04-18T03:03:41.531Z,3.01
2023-04-18T03:04:41.537Z,3.03
2023-04-18T03:05:41.537Z,3.01
2023-04-18T03:06:41.544Z,2.98
2023-04-18T03:07:41.548Z,2.97
2023-04-18T03:08:41.559Z,2.98
2023-04-18T03:09:41.568Z,2.99
2023-04-18T03:10:41.570Z,2.96
2023-04-18T03:11:41.573Z,2.96
2023-04-18T03:12:41.583Z,2.96
2023-04-18T03:13:41.590Z,2.97
2023-04-18T03:14:41.602Z,2.94
2023-04-18T03:15:41.652Z,2.95
2023-04-18T03:16:41.615Z,2.94
2023-04-18T03:17:41.654Z,2.94
2023-04-18T03:18:41.660Z,2.96
2023-04-18T03:19:41.663Z,2.96
2023-04-18T03:20:41.730Z,2.93
2023-04-18T03:21:41.720Z,2.92
2023-04-18T03:22:41.705Z,2.91
2023-04-18T03:23:41.708Z,2.90
2023-04-18T03:24:41.719Z,2.90
2023-04-18T03:25:41.713Z,2.91
2023-04-18T03:26:41.711Z,2.94
2023-04-18T03:27:41.727Z,2.94
2023-04-18T03:28:41.740Z,2.94
2023-04-18T03:29:41.742Z,2.96
2023-04-18T03:30:41.783Z,2.95
2023-04-18T03:31:41.813Z,2.91
2023-04-18T03:32:41.796Z,2.90
2023-04-18T03:33:41.778Z,2.91
2023-04-18T03:34:41.818Z,2.94
2023-04-18T03:35:41.794Z,2.91
2023-04-18T03:36:41.801Z,2.92
2023-04-18T03:37:41.813Z,2.92
2023-04-18T03:38:41.818Z,2.92
2023-04-18T03:39:41.830Z,2.91
2023-04-18T03:40:41.832Z,2.92
2023-04-18T03:41:41.844Z,2.88
2023-04-18T03:42:41.852Z,2.86
2023-04-18T03:43:41.865Z,2.87
2023-04-18T03:44:41.868Z,2.88
2023-04-18T03:45:41.884Z,2.90
2023-04-18T03:46:42.087Z,2.89
2023-04-18T03:47:41.911Z,2.87
2023-04-18T03:48:41.905Z,2.86
2023-04-18T03:49:41.913Z,2.84
2023-04-18T03:50:41.918Z,2.84
2023-04-18T03:51:41.929Z,2.83
2023-04-18T03:52:41.936Z,2.85
2023-04-18T03:53:41.963Z,2.84
2023-04-18T03:54:41.962Z,2.83
2023-04-18T03:55:41.968Z,2.83
2023-04-18T03:56:41.972Z,2.82
2023-04-18T03:57:41.981Z,2.83
2023-04-18T03:58:41.989Z,2.79
2023-04-18T03:59:42.001Z,2.80
2023-04-18T04:00:42.016Z,2.80
2023-04-18T04:01:42.039Z,2.81
2023-04-18T04:02:42.192Z,2.77
2023-04-18T04:03:42.157Z,2.81
2023-04-18T04:04:42.040Z,2.81
2023-04-18T04:05:42.043Z,2.80
2023-04-18T04:06:42.056Z,2.81
2023-04-18T04:07:42.068Z,2.80
2023-04-18T04:08:42.088Z,2.80
2023-04-18T04:09:42.081Z,2.79
2023-04-18T04:10:42.083Z,2.79
2023-04-18T04:11:42.086Z,2.76
2023-04-18T04:12:42.093Z,2.75
2023-04-18T04:13:42.102Z,2.74
2023-04-18T04:14:42.106Z,2.74
2023-04-18T04:15:42.118Z,2.72
2023-04-18T04:16:42.129Z,2.74
2023-04-18T04:17:42.150Z,2.74
2023-04-18T04:18:42.141Z,2.69
2023-04-18T04:19:42.151Z,2.68
2023-04-18T04:20:42.155Z,2.66
2023-04-18T04:21:42.163Z,2.65
2023-04-18T04:22:42.180Z,2.64
2023-04-18T04:23:42.180Z,2.62
2023-04-18T04:24:42.188Z,2.63
2023-04-18T04:25:42.194Z,2.65
2023-04-18T04:26:42.203Z,2.64
2023-04-18T04:27:42.210Z,2.66
2023-04-18T04:28:42.219Z,2.66
2023-04-18T04:29:42.224Z,2.65
2023-04-18T04:30:42.234Z,2.67
2023-04-18T04:31:42.303Z,2.67
2023-04-18T04:32:42.285Z,2.68
2023-04-18T04:33:42.252Z,2.70
2023-04-18T04:34:42.266Z,2.72
2023-04-18T04:35:42.265Z,2.74
2023-04-18T04:36:42.274Z,2.73
2023-04-18T04:37:42.279Z,2.73
2023-04-18T04:38:42.287Z,2.74
2023-04-18T04:39:42.296Z,2.74
2023-04-18T04:40:42.301Z,2.75
2023-04-18T04:41:42.307Z,2.78
2023-04-18T04:42:42.330Z,2.78
2023-04-18T04:43:42.322Z,2.80
2023-04-18T04:44:42.348Z,2.82
2023-04-18T04:45:42.362Z,2.81
2023-04-18T04:46:42.339Z,2.85
2023-04-18T04:47:42.384Z,2.84
2023-04-18T04:48:42.369Z,2.85
2023-04-18T04:49:42.370Z,2.86
2023-04-18T04:50:42.385Z,2.87
2023-04-18T04:51:42.381Z,2.87
2023-04-18T04:52:42.388Z,2.87
2023-04-18T04:53:42.396Z,2.91
2023-04-18T04:54:42.399Z,2.90
2023-04-18T04:55:42.408Z,2.91
2023-04-18T04:56:42.417Z,2.93
2023-04-18T04:57:42.422Z,2.94
2023-04-18T04:58:42.448Z,2.95
2023-04-18T04:59:42.440Z,2.98
2023-04-18T05:00:42.451Z,2.95
2023-04-18T05:01:42.498Z,3.00
2023-04-18T05:02:42.569Z,3.02
2023-04-18T05:03:42.660Z,3.04
2023-04-18T05:04:42.581Z,3.06
2023-04-18T05:05:42.484Z,3.08
2023-04-18T05:06:42.494Z,3.13
2023-04-18T05:07:42.498Z,3.13
2023-04-18T05:08:42.505Z,3.15
2023-04-18T05:09:42.552Z,3.18
2023-04-18T05:10:42.522Z,3.21
2023-04-18T05:11:42.534Z,3.24
2023-04-18T05:12:42.539Z,3.25
2023-04-18T05:13:42.547Z,3.29
2023-04-18T05:14:42.554Z,3.31
2023-04-18T05:15:42.562Z,3.34
2023-04-18T05:16:42.598Z,3.37
2023-04-18T05:17:42.610Z,3.39
2023-04-18T05:18:42.584Z,3.40
2023-04-18T05:19:42.590Z,3.42
2023-04-18T05:20:42.598Z,3.44
2023-04-18T05:21:42.606Z,3.46
2023-04-18T05:22:42.612Z,3.50
2023-04-18T05:23:42.620Z,3.48
2023-04-18T05:24:42.627Z,3.49
2023-04-18T05:25:42.635Z,3.51
2023-04-18T05:26:42.643Z,3.55
2023-04-18T05:27:42.653Z,3.57
2023-04-18T05:28:42.656Z,3.59
2023-04-18T05:29:42.664Z,3.62
2023-04-18T05:30:42.679Z,3.65
2023-04-18T05:31:42.672Z,3.68
2023-04-18T05:32:42.698Z,3.70
2023-04-18T05:33:42.684Z,3.70
2023-04-18T05:34:42.695Z,3.76
2023-04-18T05:35:42.708Z,3.76
2023-04-18T05:36:42.713Z,3.83
2023-04-18T05:37:42.726Z,3.86
2023-04-18T05:38:42.729Z,3.89
2023-04-18T05:39:42.746Z,3.90
2023-04-18T05:40:42.752Z,3.94
2023-04-18T05:41:42.762Z,3.97
2023-04-18T05:42:42.769Z,4.00
2023-04-18T05:43:44.455Z,4.10
2023-04-18T05:44:42.785Z,4.10
2023-04-18T05:45:42.812Z,4.09
2023-04-18T05:46:42.877Z,4.13
2023-04-18T05:47:42.869Z,4.16
2023-04-18T05:48:42.831Z,4.21
2023-04-18T05:49:42.833Z,4.25
2023-04-18T05:50:42.844Z,4.26
2023-04-18T05:51:42.855Z,4.25
2023-04-18T05:52:42.854Z,4.25
2023-04-18T05:53:42.862Z,4.26
2023-04-18T05:54:42.878Z,4.26
2023-04-18T05:55:42.880Z,4.29
2023-04-18T05:56:42.884Z,4.32
2023-04-18T05:57:42.896Z,4.39
2023-04-18T05:58:42.902Z,4.41
2023-04-18T05:59:42.908Z,4.43
2023-04-18T06:00:42.919Z,4.48
2023-04-18T06:01:42.918Z,4.52
2023-04-18T06:02:43.035Z,4.57
2023-04-18T06:03:43.042Z,4.61
2023-04-18T06:04:43.055Z,4.65
2023-04-18T06:05:42.985Z,4.69
2023-04-18T06:06:42.960Z,4.75
2023-04-18T06:07:42.969Z,4.80
2023-04-18T06:08:42.969Z,4.85
2023-04-18T06:09:42.977Z,4.94
2023-04-18T06:10:42.985Z,4.98
2023-04-18T06:11:42.994Z,5.05
2023-04-18T06:12:43.021Z,5.11
2023-04-18T06:13:43.010Z,5.18
2023-04-18T06:14:43.022Z,5.26
2023-04-18T06:15:43.042Z,5.33
2023-04-18T06:16:43.065Z,5.42
2023-04-18T06:17:43.070Z,5.48
2023-04-18T06:18:43.061Z,5.57
2023-04-18T06:19:43.067Z,5.64
2023-04-18T06:20:43.066Z,5.74
2023-04-18T06:21:43.078Z,5.82
2023-04-18T06:22:43.086Z,5.91
2023-04-18T06:23:43.091Z,5.99
2023-04-18T06:24:43.112Z,6.05
2023-04-18T06:25:43.106Z,6.10
2023-04-18T06:26:43.122Z,6.10
2023-04-18T06:27:43.132Z,6.13
2023-04-18T06:28:43.144Z,6.14
2023-04-18T06:29:43.164Z,6.22
2023-04-18T06:30:43.164Z,6.26
2023-04-18T06:31:43.167Z,6.32
2023-04-18T06:32:43.226Z,6.40
2023-04-18T06:33:43.198Z,6.47
2023-04-18T06:34:43.194Z,6.54
2023-04-18T06:35:43.202Z,6.60
2023-04-18T06:36:43.209Z,6.67
2023-04-18T06:37:43.230Z,6.74
2023-04-18T06:38:43.229Z,6.79
2023-04-18T06:39:43.251Z,6.73
2023-04-18T06:40:43.310Z,6.72
2023-04-18T06:41:43.248Z,6.70
2023-04-18T06:42:43.258Z,6.71
2023-04-18T06:43:52.354Z,6.75
2023-04-18T06:44:43.286Z,6.78
2023-04-18T06:45:43.321Z,6.88
2023-04-18T06:46:43.288Z,6.93
2023-04-18T06:47:43.349Z,6.98
2023-04-18T06:48:43.312Z,7.04
2023-04-18T06:49:43.313Z,7.03
2023-04-18T06:50:43.317Z,7.07
2023-04-18T07:08:43.689Z,7.63
2023-04-18T07:09:43.530Z,7.63
2023-04-18T07:10:43.538Z,7.70
2023-04-18T07:11:43.574Z,7.74
2023-04-18T07:12:43.555Z,7.78
2023-04-18T07:13:43.569Z,7.80
2023-04-18T07:14:43.585Z,7.75
2023-04-18T07:15:43.589Z,7.74
2023-04-18T07:16:43.593Z,7.71
2023-04-18T07:17:43.614Z,7.76
2023-04-18T07:18:43.608Z,7.83
2023-04-18T07:19:43.619Z,7.93
2023-04-18T07:20:43.627Z,8.04
2023-04-18T07:21:43.780Z,8.13
2023-04-18T07:22:43.665Z,8.19
2023-04-18T07:23:43.656Z,8.23
2023-04-18T07:24:43.668Z,8.31
2023-04-18T07:25:43.684Z,8.36
2023-04-18T07:26:43.682Z,8.37
2023-04-18T07:27:43.695Z,8.37
2023-04-18T07:28:43.696Z,8.40
2023-04-18T07:29:43.705Z,8.33
2023-04-18T07:30:43.728Z,8.28
2023-04-18T07:31:43.724Z,8.33
2023-04-18T07:32:43.757Z,8.38
2023-04-18T07:33:43.810Z,8.46
2023-04-18T07:34:43.772Z,8.46
2023-04-18T07:35:43.761Z,8.49
2023-04-18T07:36:43.767Z,8.50
2023-04-18T07:37:43.783Z,8.56
2023-04-18T07:38:43.790Z,8.59
2023-04-18T07:39:43.796Z,8.64
2023-04-18T07:40:43.813Z,8.63
2023-04-18T07:41:43.912Z,8.62
2023-04-18T07:42:43.833Z,8.67
2023-04-18T07:43:43.841Z,8.72
2023-04-18T07:44:43.843Z,8.76
2023-04-18T07:45:43.861Z,8.84
2023-04-18T07:46:43.867Z,8.87
2023-04-18T07:47:43.899Z,8.86
2023-04-18T07:48:43.879Z,8.88
2023-04-18T07:49:43.887Z,8.88
2023-04-18T07:50:43.928Z,8.90
2023-04-18T07:51:43.915Z,8.94
2023-04-18T07:52:43.941Z,9.02
2023-04-18T07:53:43.938Z,9.09
2023-04-18T07:54:43.942Z,9.20
2023-04-18T07:55:43.940Z,9.26
2023-04-18T07:56:43.958Z,9.31
2023-04-18T07:57:45.253Z,9.34
2023-04-18T07:58:43.961Z,9.32
2023-04-18T07:59:43.992Z,9.18
2023-04-18T08:00:43.997Z,9.14
2023-04-18T08:01:44.045Z,9.15
2023-04-18T08:02:44.079Z,9.12
2023-04-18T08:03:44.114Z,9.13
2023-04-18T08:04:44.151Z,9.09
2023-04-18T08:05:44.038Z,9.18
2023-04-18T08:06:44.045Z,9.31
2023-04-18T08:07:44.055Z,9.42
2023-04-18T08:08:44.059Z,9.54
2023-04-18T08:09:44.098Z,9.65
2023-04-18T08:10:44.078Z,9.75
2023-04-18T08:11:44.094Z,9.85
2023-04-18T08:12:44.092Z,9.82
2023-04-18T08:13:44.139Z,9.77
2023-04-18T08:14:44.106Z,9.56
2023-04-18T08:15:44.148Z,9.39
2023-04-18T08:16:44.160Z,9.28
2023-04-18T08:17:44.152Z,9.24
2023-04-18T08:18:44.152Z,9.14
2023-04-18T08:19:44.154Z,9.06
2023-04-18T08:20:44.165Z,9.06
2023-04-18T08:21:44.170Z,9.05
2023-04-18T08:22:50.391Z,9.08
2023-04-18T08:23:44.184Z,9.14
2023-04-18T08:24:57.399Z,9.18
2023-04-18T08:25:44.205Z,9.25
2023-04-18T08:26:44.208Z,9.37
2023-04-18T08:27:44.229Z,9.54
2023-04-18T08:28:46.273Z,9.73
2023-04-18T08:29:44.236Z,9.92
2023-04-18T08:30:44.248Z,9.94
2023-04-18T08:31:44.284Z,9.91
2023-04-18T08:32:44.295Z,9.92
2023-04-18T08:33:44.277Z,9.91
2023-04-18T08:34:44.282Z,9.94
2023-04-18T08:35:44.302Z,9.93
2023-04-18T08:36:44.307Z,9.93
2023-04-18T08:37:44.310Z,9.91
2023-04-18T08:38:44.329Z,9.87
2023-04-18T08:39:44.327Z,9.87
2023-04-18T08:40:44.335Z,9.89
2023-04-18T08:41:44.336Z,9.88
2023-04-18T08:42:44.356Z,9.96
2023-04-18T08:43:44.356Z,9.92
2023-04-18T08:44:44.367Z,9.94
2023-04-18T08:45:44.432Z,9.82
2023-04-18T08:46:44.379Z,9.81
2023-04-18T08:47:44.419Z,9.87
2023-04-18T08:48:44.398Z,9.96
2023-04-18T08:49:44.408Z,10.07
2023-04-18T08:50:44.425Z,10.14
2023-04-18T08:51:44.423Z,10.21
2023-04-18T08:52:44.452Z,10.30
2023-04-18T08:53:44.451Z,10.28
2023-04-18T08:54:44.452Z,10.38
2023-04-18T08:55:44.484Z,10.51
2023-04-18T08:56:44.470Z,10.67
2023-04-18T08:57:44.486Z,10.78
2023-04-18T08:58:44.488Z,10.90
2023-04-18T08:59:45.931Z,10.98
2023-04-18T09:00:44.513Z,10.92
2023-04-18T09:01:44.566Z,10.78
2023-04-18T09:02:44.658Z,10.71
2023-04-18T09:03:44.569Z,10.66
2023-04-18T09:04:44.539Z,10.54
2023-04-18T09:05:44.544Z,10.46
2023-04-18T09:06:44.561Z,10.47
2023-04-18T09:07:44.570Z,10.55
2023-04-18T09:08:44.603Z,10.57
2023-04-18T09:09:44.591Z,10.71
2023-04-18T09:10:46.596Z,10.77
2023-04-18T09:11:44.598Z,10.72
2023-04-18T09:12:44.622Z,10.65
2023-04-18T09:13:44.619Z,10.60
2023-04-18T09:14:44.641Z,10.58
2023-04-18T09:15:44.641Z,10.56
2023-04-18T09:16:44.768Z,10.48
2023-04-18T09:17:44.680Z,10.36
2023-04-18T09:18:44.672Z,10.22
2023-04-18T09:19:44.691Z,10.11
2023-04-18T09:20:44.718Z,10.06
2023-04-18T09:21:44.706Z,10.05
2023-04-18T09:22:44.724Z,10.02
2023-04-18T09:23:44.729Z,9.94
2023-04-18T09:24:44.737Z,10.01
2023-04-18T09:25:45.378Z,10.06
2023-04-18T09:26:44.754Z,10.16
2023-04-18T09:27:44.766Z,10.22
2023-04-18T09:28:44.769Z,10.32
2023-04-18T09:29:44.774Z,10.26
2023-04-18T09:30:44.808Z,10.15
2023-04-18T09:31:44.789Z,10.10
2023-04-18T09:32:44.814Z,10.11
2023-04-18T09:33:44.839Z,10.11
2023-04-18T09:34:44.861Z,10.02
2023-04-18T09:35:44.838Z,10.03
2023-04-18T09:36:44.867Z,10.12
2023-04-18T09:37:44.861Z,10.26
2023-04-18T09:38:44.872Z,10.40
2023-04-18T09:39:44.874Z,10.53
2023-04-18T09:40:44.887Z,10.59
2023-04-18T09:41:44.894Z,10.64
2023-04-18T09:42:44.907Z,10.66
2023-04-18T09:43:44.918Z,10.67
2023-04-18T09:44:44.927Z,10.67
2023-04-18T09:45:44.974Z,10.77
2023-04-18T09:46:46.811Z,10.85
2023-04-18T09:47:44.985Z,10.94
2023-04-18T09:48:44.994Z,11.01
2023-04-18T09:49:44.983Z,11.11
2023-04-18T09:50:44.990Z,11.07
2023-04-18T09:51:44.998Z,11.02
2023-04-18T09:52:45.007Z,11.08
2023-04-18T09:53:45.120Z,11.12
2023-04-18T09:54:46.548Z,11.11
2023-04-18T09:55:45.037Z,10.96
2023-04-18T09:56:45.048Z,10.91
2023-04-18T09:57:45.053Z,10.87
2023-04-18T09:58:45.119Z,10.81
2023-04-18T09:59:45.071Z,10.68
2023-04-18T10:00:46.781Z,10.50
2023-04-18T10:01:45.096Z,10.29
2023-04-18T10:02:45.120Z,10.10
2023-04-18T10:03:45.152Z,9.97
2023-04-18T10:04:45.204Z,9.95
2023-04-18T10:05:45.224Z,9.94
2023-04-18T10:06:45.127Z,9.88
2023-04-18T10:07:45.157Z,9.74
2023-04-18T10:08:45.143Z,9.67
2023-04-18T10:09:45.149Z,9.63
2023-04-18T10:10:45.168Z,9.54
2023-04-18T10:11:45.175Z,9.51
2023-04-18T10:12:45.180Z,9.47
2023-04-18T10:13:45.195Z,9.42
2023-04-18T10:14:45.191Z,9.45
2023-04-18T10:15:45.248Z,9.49
2023-04-18T10:16:45.210Z,9.52
2023-04-18T10:17:52.625Z,9.52
2023-04-18T10:18:45.232Z,9.48
2023-04-18T10:19:45.248Z,9.47
2023-04-18T10:20:45.246Z,9.47
2023-04-18T10:21:45.250Z,9.48
2023-04-18T10:22:45.264Z,9.46
2023-04-18T10:23:45.271Z,9.46
2023-04-18T10:24:45.278Z,9.38
2023-04-18T10:25:45.286Z,9.28
2023-04-18T10:26:45.306Z,9.23
2023-04-18T10:27:45.304Z,9.23
2023-04-18T10:28:45.988Z,9.23
2023-04-18T10:29:45.321Z,9.22
2023-04-18T10:30:45.342Z,9.24
2023-04-18T10:31:45.366Z,9.28
2023-04-18T10:32:45.371Z,9.34
2023-04-18T10:33:49.709Z,9.37
2023-04-18T10:34:45.376Z,9.46
2023-04-18T10:35:45.387Z,9.59
2023-04-18T10:36:45.387Z,9.76
2023-04-18T10:37:45.403Z,9.89
2023-04-18T10:38:45.531Z,10.03
2023-04-18T10:39:45.429Z,10.10
2023-04-18T10:40:45.440Z,10.24
2023-04-18T10:41:45.448Z,10.37
2023-04-18T10:42:45.463Z,10.47
2023-04-18T10:43:45.489Z,10.55
2023-04-18T10:44:45.486Z,10.63
2023-04-18T10:45:45.500Z,10.72
2023-04-18T10:46:45.516Z,10.77
2023-04-18T10:47:45.590Z,10.87
2023-04-18T10:48:45.517Z,11.01
2023-04-18T10:49:45.520Z,11.17
2023-04-18T10:50:45.536Z,11.32
2023-04-18T10:51:45.580Z,11.38
2023-04-18T10:52:45.559Z,11.38
2023-04-18T10:53:45.576Z,11.32
2023-04-18T10:54:45.574Z,11.17
2023-04-18T10:55:45.578Z,11.13
2023-04-18T10:56:45.596Z,11.17
2023-04-18T10:57:45.625Z,11.11
2023-04-18T10:58:45.611Z,11.09
2023-04-18T10:59:45.625Z,11.13
2023-04-18T11:00:45.645Z,11.21
2023-04-18T11:01:45.718Z,11.14
2023-04-18T11:02:45.714Z,11.09
2023-04-18T11:03:45.754Z,10.95
2023-04-18T11:04:45.668Z,10.81
2023-04-18T11:05:45.668Z,10.76
2023-04-18T11:06:45.680Z,10.80
2023-04-18T11:07:45.692Z,10.85
2023-04-18T11:08:45.696Z,10.94
2023-04-18T11:09:45.703Z,10.98
2023-04-18T11:10:45.712Z,11.07
2023-04-18T11:11:45.719Z,11.17
2023-04-18T11:12:45.728Z,11.32
2023-04-18T11:13:45.731Z,11.37
2023-04-18T11:14:45.744Z,11.37
2023-04-18T11:15:45.747Z,11.31
2023-04-18T11:16:45.815Z,11.38
2023-04-18T11:17:45.794Z,11.35
2023-04-18T11:18:45.770Z,11.40
2023-04-18T11:19:45.794Z,11.43
2023-04-18T11:20:45.806Z,11.43
2023-04-18T11:21:45.815Z,11.46
2023-04-18T11:22:45.824Z,11.49
2023-04-18T11:23:45.830Z,11.46
2023-04-18T11:24:45.836Z,11.43
2023-04-18T11:25:45.853Z,11.54
2023-04-18T11:26:45.864Z,11.66
2023-04-18T11:27:45.881Z,11.62
2023-04-18T11:28:45.886Z,11.68
2023-04-18T11:29:45.904Z,11.76
2023-04-18T11:30:45.908Z,11.82
2023-04-18T11:31:45.930Z,11.84
2023-04-18T11:32:45.962Z,11.95
2023-04-18T11:33:45.949Z,12.02
2023-04-18T11:34:45.955Z,12.10
2023-04-18T11:35:46.006Z,12.15
2023-04-18T11:36:46.024Z,12.15
2023-04-18T11:37:46.095Z,12.20
2023-04-18T11:38:46.018Z,12.23
2023-04-18T11:39:46.011Z,12.23
2023-04-18T11:40:46.017Z,12.31
2023-04-18T11:41:46.030Z,12.36
2023-04-18T11:42:46.045Z,12.25
2023-04-18T11:43:46.044Z,12.07
2023-04-18T11:44:46.068Z,11.94
2023-04-18T11:45:46.097Z,11.95
2023-04-18T11:46:46.082Z,11.95
2023-04-18T11:47:46.140Z,11.99
2023-04-18T11:48:46.098Z,12.04
2023-04-18T11:49:46.116Z,11.99
2023-04-18T11:50:46.127Z,12.01
2023-04-18T11:51:46.151Z,12.02
2023-04-18T11:52:46.154Z,12.09
2023-04-18T11:53:46.161Z,11.96
2023-04-18T11:54:46.169Z,11.94
2023-04-18T11:55:46.190Z,11.90
2023-04-18T11:56:46.188Z,11.85
2023-04-18T11:57:46.196Z,11.92
2023-04-18T11:58:46.202Z,12.00
2023-04-18T11:59:46.212Z,12.15
2023-04-18T12:00:46.228Z,12.30
2023-04-18T12:01:46.226Z,12.40
2023-04-18T12:02:46.400Z,12.56
2023-04-18T12:03:46.365Z,12.66
2023-04-18T12:04:46.376Z,12.74
2023-04-18T12:05:46.650Z,12.88
2023-04-18T12:06:46.281Z,12.78
2023-04-18T12:07:46.297Z,12.70
2023-04-18T12:08:46.304Z,12.65
2023-04-18T12:09:46.313Z,12.50
2023-04-18T12:10:46.328Z,12.40
2023-04-18T12:11:46.334Z,12.38
2023-04-18T12:12:46.339Z,12.35
2023-04-18T12:13:46.355Z,12.35
2023-04-18T12:14:46.368Z,12.38
2023-04-18T12:15:46.403Z,12.42
2023-04-18T12:16:46.390Z,12.49
2023-04-18T12:17:46.442Z,12.47
2023-04-18T12:18:46.405Z,12.50
2023-04-18T12:19:48.002Z,12.64
2023-04-18T12:20:46.489Z,12.55
2023-04-18T12:21:46.438Z,12.45
2023-04-18T12:22:46.452Z,12.42
2023-04-18T12:23:46.465Z,12.51
2023-04-18T12:24:46.476Z,12.65
2023-04-18T12:25:46.482Z,12.74
2023-04-18T12:26:46.511Z,12.69
2023-04-18T12:27:46.509Z,12.48
2023-04-18T12:28:46.556Z,12.34
2023-04-18T12:29:46.526Z,12.34
2023-04-18T12:30:46.547Z,12.38
2023-04-18T12:31:46.567Z,12.33
2023-04-18T12:32:46.586Z,12.30
2023-04-18T12:33:46.569Z,12.29
2023-04-18T12:34:46.587Z,12.32
2023-04-18T12:35:47.824Z,12.18
2023-04-18T12:36:46.608Z,12.21
2023-04-18T12:37:46.612Z,12.26
2023-04-18T12:38:46.630Z,12.20
2023-04-18T12:39:46.657Z,12.11
2023-04-18T12:40:46.655Z,11.95
2023-04-18T12:41:48.292Z,11.95
2023-04-18T12:42:46.680Z,11.97
2023-04-18T12:43:46.687Z,12.04
2023-04-18T12:44:47.926Z,12.04
2023-04-18T12:45:46.718Z,12.04
2023-04-18T12:46:46.749Z,12.10
2023-04-18T12:47:46.768Z,12.15
2023-04-18T12:48:46.745Z,12.22
2023-04-18T12:49:46.753Z,12.30
2023-04-18T12:50:46.763Z,12.40
2023-04-18T12:51:46.773Z,12.49
2023-04-18T12:52:46.782Z,12.61
2023-04-18T12:53:46.791Z,12.65
2023-04-18T12:54:46.803Z,12.65
2023-04-18T12:55:46.871Z,12.52
2023-04-18T12:56:46.828Z,12.50
2023-04-18T12:57:46.834Z,12.39
2023-04-18T12:58:46.848Z,12.38
2023-04-18T12:59:46.860Z,12.39
2023-04-18T13:00:46.908Z,12.40
2023-04-18T13:01:46.894Z,12.38
2023-04-18T13:02:46.953Z,12.49
2023-04-18T13:03:53.655Z,12.63
2023-04-18T13:04:46.990Z,12.70
2023-04-18T13:05:46.927Z,12.78
2023-04-18T13:06:46.937Z,12.84
2023-04-18T13:07:46.939Z,12.77
2023-04-18T13:08:46.954Z,12.77
2023-04-18T13:09:46.963Z,12.60
2023-04-18T13:10:46.988Z,12.62
2023-04-18T13:11:48.979Z,12.72
2023-04-18T13:12:46.998Z,12.71
2023-04-18T13:13:47.010Z,12.83
2023-04-18T13:14:47.031Z,13.04
2023-04-18T13:15:47.035Z,13.24
2023-04-18T13:16:47.073Z,13.33
2023-04-18T13:17:47.094Z,13.37
2023-04-18T13:18:47.063Z,13.43
2023-04-18T13:19:47.073Z,13.45
2023-04-18T13:20:47.086Z,13.33
2023-04-18T13:21:49.092Z,13.14
2023-04-18T13:22:47.116Z,12.93
2023-04-18T13:23:47.132Z,12.81
2023-04-18T13:24:47.135Z,12.71
2023-04-18T13:25:47.141Z,12.57
2023-04-18T13:26:47.153Z,12.48
2023-04-18T13:27:47.162Z,12.37
2023-04-18T13:28:47.177Z,12.25
2023-04-18T13:29:47.189Z,12.04
2023-04-18T13:30:47.203Z,11.98
2023-04-18T13:31:47.236Z,11.89
2023-04-18T13:32:47.280Z,11.79
2023-04-18T13:33:47.225Z,11.66
2023-04-18T13:34:47.249Z,11.57
2023-04-18T13:35:47.251Z,11.46
2023-04-18T13:36:47.263Z,11.30
2023-04-18T13:37:47.277Z,11.20
2023-04-18T13:38:47.299Z,11.17
2023-04-18T13:39:47.303Z,11.14
2023-04-18T13:40:47.316Z,11.13
2023-04-18T13:41:47.324Z,11.03
2023-04-18T13:42:47.324Z,11.01
2023-04-18T13:43:47.344Z,10.92